Time;durP1;ratioP1;P1;durP2;ratioP2;P2;SDS_P1;SDS_P2;PMS_P1;PMS_P2;Temp;Humidity;BMP_temperature;BMP_pressure;BME280_temperature;BME280_humidity;BME280_pressure;Samples;Min_cycle;Max_cycle;Signal;HPM_P1;HPM_P2
2023/02/07 00:00:55;;;;;;;7.80;3.60;;;;;;;-1.79;100.00;102338.79;109352;1253;72046;-84
2023/02/07 00:03:45;;;;;;;9.70;4.80;;;;;;;-1.81;100.00;102331.80;109399;1253;59740;-84
2023/02/07 00:06:34;;;;;;;8.70;4.90;;;;;;;-1.81;100.00;102337.12;109164;1253;59248;-84
2023/02/07 00:09:23;;;;;;;11.50;4.40;;;;;;;-1.85;100.00;102336.85;109159;1253;75132;-86
2023/02/07 00:12:13;;;;;;;9.70;4.70;;;;;;;-1.85;100.00;102340.79;109310;1253;68636;-85
2023/02/07 00:15:02;;;;;;;12.70;5.60;;;;;;;-1.84;100.00;102335.72;109291;1253;70686;-82
2023/02/07 00:17:53;;;;;;;14.40;6.00;;;;;;;-1.84;100.00;102334.44;109340;1256;59121;-83
2023/02/07 00:20:42;;;;;;;9.80;5.00;;;;;;;-1.86;100.00;102338.61;109240;1253;60128;-82
2023/02/07 00:23:31;;;;;;;11.70;5.20;;;;;;;-1.85;100.00;102337.55;109352;1253;73663;-82
2023/02/07 00:26:22;;;;;;;10.20;4.30;;;;;;;-1.82;100.00;102334.57;109340;1253;68742;-82
2023/02/07 00:29:10;;;;;;;7.80;4.20;;;;;;;-1.82;100.00;102330.31;109225;1252;70796;-83
2023/02/07 00:31:59;;;;;;;8.60;4.40;;;;;;;-1.86;100.00;102331.21;109170;1252;59064;-83
2023/02/07 00:34:50;;;;;;;9.10;4.40;;;;;;;-1.89;100.00;102326.72;109360;1253;60602;-82
2023/02/07 00:37:39;;;;;;;11.10;4.80;;;;;;;-1.87;100.00;102331.71;109283;1254;75029;-83
2023/02/07 00:40:27;;;;;;;15.10;6.30;;;;;;;-1.87;100.00;102327.39;109379;1257;68990;-82
2023/02/07 00:43:17;;;;;;;11.80;4.80;;;;;;;-1.91;100.00;102328.04;109216;1252;70437;-82
2023/02/07 00:46:17;;;;;;;10.80;4.40;;;;;;;-1.97;100.00;102327.64;109310;1254;59071;-82
2023/02/07 00:49:06;;;;;;;8.90;4.90;;;;;;;-1.94;100.00;102321.30;109169;1255;60381;-83
2023/02/07 00:51:55;;;;;;;9.60;4.80;;;;;;;-1.95;100.00;102321.54;109372;1253;74030;-83
2023/02/07 00:54:43;;;;;;;8.40;4.30;;;;;;;-1.93;100.00;102320.52;109391;1254;69482;-82
2023/02/07 00:57:33;;;;;;;5.40;3.80;;;;;;;-1.95;100.00;102328.34;109372;1256;73165;-83
2023/02/07 01:00:21;;;;;;;8.30;4.20;;;;;;;-1.99;100.00;102330.20;109318;1253;59075;-83
2023/02/07 01:03:10;;;;;;;10.80;4.40;;;;;;;-1.98;100.00;102326.91;109329;1253;60941;-82
2023/02/07 01:05:59;;;;;;;9.80;4.40;;;;;;;-2.01;100.00;102332.55;109414;1254;75604;-82
2023/02/07 01:08:48;;;;;;;12.40;4.80;;;;;;;-2.01;100.00;102327.36;109405;1256;67363;-82
2023/02/07 01:11:37;;;;;;;9.20;3.80;;;;;;;-1.98;100.00;102318.34;109302;1254;72824;-83
2023/02/07 01:14:26;;;;;;;11.30;4.20;;;;;;;-1.93;100.00;102314.27;109275;1253;60788;-83
2023/02/07 01:17:15;;;;;;;11.60;5.30;;;;;;;-1.97;100.00;102309.42;109334;1253;60400;-83
2023/02/07 01:20:09;;;;;;;8.80;4.40;;;;;;;-1.97;100.00;102310.19;109188;1259;74867;-83
2023/02/07 01:22:57;;;;;;;9.20;4.80;;;;;;;-1.98;100.00;102312.08;109382;1254;69015;-83
2023/02/07 01:25:46;;;;;;;8.80;4.30;;;;;;;-1.97;100.00;102312.84;109413;1256;71706;-83
2023/02/07 01:28:35;;;;;;;8.70;4.30;;;;;;;-1.94;100.00;102316.52;109354;1253;59100;-85
2023/02/07 01:31:24;;;;;;;10.60;4.80;;;;;;;-1.94;100.00;102313.46;109335;1253;59073;-85
2023/02/07 01:34:13;;;;;;;14.80;6.10;;;;;;;-1.93;100.00;102305.67;109336;1254;75826;-85
2023/02/07 01:37:02;;;;;;;13.00;5.30;;;;;;;-1.92;100.00;102298.61;109383;1252;67149;-85
2023/02/07 01:39:50;;;;;;;12.20;5.20;;;;;;;-1.91;100.00;102295.67;109247;1254;72953;-82
2023/02/07 01:42:39;;;;;;;10.40;4.90;;;;;;;-1.89;100.00;102293.48;109341;1253;61111;-82
2023/02/07 01:45:35;;;;;;;11.20;5.20;;;;;;;-1.91;100.00;102289.35;109331;1253;60766;-85
2023/02/07 01:48:31;;;;;;;9.40;4.80;;;;;;;-1.92;100.00;102289.88;109181;1254;74543;-85
2023/02/07 01:51:20;;;;;;;8.80;4.10;;;;;;;-1.95;100.00;102289.27;109175;1254;69152;-85
2023/02/07 01:54:09;;;;;;;12.80;5.20;;;;;;;-2.08;100.00;102288.20;109104;1254;70707;-85
2023/02/07 01:57:00;;;;;;;10.70;4.60;;;;;;;-2.09;100.00;102290.66;109229;1254;61644;-85
2023/02/07 01:59:50;;;;;;;8.10;4.50;;;;;;;-2.10;100.00;102288.04;109070;1254;60170;-84
2023/02/07 02:02:39;;;;;;;13.40;5.10;;;;;;;-2.13;100.00;102292.83;109220;1254;73688;-85
2023/02/07 02:05:29;;;;;;;9.50;5.00;;;;;;;-2.19;100.00;102292.61;109183;1254;68958;-86
2023/02/07 02:08:18;;;;;;;10.40;4.60;;;;;;;-2.19;100.00;102290.90;109074;1253;73265;-86
2023/02/07 02:11:44;;;;;;;7.20;3.50;;;;;;;-2.17;100.00;102292.50;109379;1254;62754;-86
2023/02/07 02:14:50;;;;;;;13.90;5.60;;;;;;;-2.17;100.00;102288.73;109097;1254;61526;-86
2023/02/07 02:18:14;;;;;;;8.10;4.50;;;;;;;-2.23;100.00;102291.98;109203;1254;75016;-85
2023/02/07 02:21:19;;;;;;;17.60;5.40;;;;;;;-2.24;100.00;102293.92;109100;1254;69394;-86
2023/02/07 02:24:30;;;;;;;13.40;4.40;;;;;;;-2.21;100.00;102291.92;109282;1254;73976;-85
2023/02/07 02:27:36;;;;;;;18.50;6.30;;;;;;;-2.18;100.00;102289.35;109097;1254;59308;-85
2023/02/07 02:30:54;;;;;;;16.60;6.60;;;;;;;-2.22;100.00;102292.02;109190;1254;60492;-86
2023/02/07 02:33:56;;;;;;;13.40;6.10;;;;;;;-2.20;100.00;102298.14;109068;1254;74167;-86
2023/02/07 02:36:53;;;;;;;11.50;5.20;;;;;;;-2.26;100.00;102299.21;109124;1253;68999;-85
2023/02/07 02:39:50;;;;;;;9.00;4.50;;;;;;;-2.25;100.00;102299.89;109154;1254;70824;-85
2023/02/07 02:42:57;;;;;;;8.20;4.40;;;;;;;-2.26;100.00;102299.59;109162;1253;60698;-86
2023/02/07 02:45:52;;;;;;;10.90;5.50;;;;;;;-2.29;100.00;102296.88;109172;1254;61194;-82
2023/02/07 02:48:41;;;;;;;12.20;5.50;;;;;;;-2.23;100.00;102291.46;109211;1254;73442;-85
2023/02/07 02:51:30;;;;;;;7.40;4.00;;;;;;;-2.22;100.00;102289.39;109172;1254;68765;-85
2023/02/07 02:54:30;;;;;;;10.50;4.90;;;;;;;-2.19;100.00;102288.38;109264;1253;73012;-85
2023/02/07 02:57:44;;;;;;;9.90;5.10;;;;;;;-2.18;100.00;102288.61;109169;1253;59550;-85
2023/02/07 03:00:56;;;;;;;8.30;4.60;;;;;;;-2.13;100.00;102290.35;109111;1253;60652;-85
2023/02/07 03:03:49;;;;;;;11.30;4.50;;;;;;;-2.16;100.00;102295.55;109260;1254;74736;-85
2023/02/07 03:07:01;;;;;;;8.10;4.60;;;;;;;-2.17;100.00;102295.66;109319;1253;69501;-85
2023/02/07 03:10:16;;;;;;;8.00;4.80;;;;;;;-2.17;100.00;102300.27;109094;1253;72534;-85
2023/02/07 03:13:20;;;;;;;10.30;4.90;;;;;;;-2.14;100.00;102296.67;109268;1253;59069;-85
2023/02/07 03:16:20;;;;;;;10.30;4.80;;;;;;;-2.23;100.00;102298.89;109220;1253;60504;-85
2023/02/07 03:19:21;;;;;;;9.20;4.60;;;;;;;-2.24;100.00;102297.07;109194;1253;75133;-82
2023/02/07 03:22:12;;;;;;;10.10;6.10;;;;;;;-2.32;100.00;102296.98;109043;1254;69828;-82
2023/02/07 03:25:04;;;;;;;9.90;4.80;;;;;;;-2.33;100.00;102301.85;109227;1254;72664;-82
2023/02/07 03:27:53;;;;;;;11.60;5.10;;;;;;;-2.30;100.00;102301.25;109212;1253;59009;-83
2023/02/07 03:30:44;;;;;;;9.60;4.80;;;;;;;-2.25;100.00;102302.15;109254;1255;61267;-83
2023/02/07 03:33:33;;;;;;;8.70;5.40;;;;;;;-2.21;100.00;102301.45;109116;1253;75769;-82
2023/02/07 03:36:26;;;;;;;9.80;4.50;;;;;;;-2.21;100.00;102302.11;109306;1254;69534;-83
2023/02/07 03:39:14;;;;;;;8.90;4.10;;;;;;;-2.18;100.00;102300.05;109194;1253;70554;-83
2023/02/07 03:42:15;;;;;;;11.30;4.60;;;;;;;-2.19;100.00;102294.98;109298;1254;59471;-82
2023/02/07 03:45:05;;;;;;;12.50;4.60;;;;;;;-2.20;100.00;102298.29;109093;1253;59150;-83
2023/02/07 03:47:54;;;;;;;9.20;4.70;;;;;;;-2.19;100.00;102299.30;109185;1253;74498;-82
2023/02/07 03:50:42;;;;;;;8.40;4.20;;;;;;;-2.18;100.00;102300.09;109346;1253;69234;-83
2023/02/07 03:53:31;;;;;;;9.50;4.80;;;;;;;-2.21;100.00;102302.83;109294;1254;71389;-82
2023/02/07 03:56:20;;;;;;;12.10;5.00;;;;;;;-2.22;100.00;102300.97;109296;1253;59860;-83
2023/02/07 03:59:09;;;;;;;9.00;4.50;;;;;;;-2.23;100.00;102304.48;109299;1253;60549;-83
2023/02/07 04:01:57;;;;;;;12.30;4.70;;;;;;;-2.26;100.00;102305.61;109304;1253;74621;-82
2023/02/07 04:04:46;;;;;;;9.00;4.30;;;;;;;-2.28;100.00;102307.70;109192;1253;67498;-82
2023/02/07 04:07:35;;;;;;;10.90;4.30;;;;;;;-2.30;100.00;102308.04;109448;1252;73168;-83
2023/02/07 04:10:24;;;;;;;8.90;4.60;;;;;;;-2.24;100.00;102311.89;109338;1252;59573;-82
2023/02/07 04:13:19;;;;;;;11.60;5.40;;;;;;;-2.26;100.00;102312.50;109303;1253;60636;-82
2023/02/07 04:16:08;;;;;;;9.80;5.00;;;;;;;-2.27;100.00;102311.69;109283;1254;73006;-83
2023/02/07 04:18:56;;;;;;;10.90;4.80;;;;;;;-2.28;100.00;102312.28;109303;1253;68736;-84
2023/02/07 04:21:45;;;;;;;12.50;5.50;;;;;;;-2.28;100.00;102309.94;109318;1254;72851;-83
2023/02/07 04:24:34;;;;;;;7.60;4.10;;;;;;;-2.30;100.00;102305.73;109267;1253;60121;-83
2023/02/07 04:27:23;;;;;;;9.90;4.20;;;;;;;-2.29;100.00;102308.63;109385;1252;59465;-83
2023/02/07 04:30:12;;;;;;;10.60;4.80;;;;;;;-2.33;100.00;102310.29;109256;1254;72508;-83
2023/02/07 04:33:01;;;;;;;12.50;4.80;;;;;;;-2.32;100.00;102308.73;109221;1253;69180;-83
2023/02/07 04:36:08;;;;;;;8.10;5.10;;;;;;;-2.32;100.00;102304.30;109330;1252;73481;-84
2023/02/07 04:38:56;;;;;;;11.40;5.90;;;;;;;-2.39;100.00;102307.07;109274;1253;59890;-84
2023/02/07 04:41:45;;;;;;;14.20;6.70;;;;;;;-2.38;100.00;102312.91;109239;1253;60710;-83
2023/02/07 04:44:35;;;;;;;12.10;6.40;;;;;;;-2.33;100.00;102315.84;109293;1253;75708;-83
2023/02/07 04:47:24;;;;;;;9.20;4.70;;;;;;;-2.34;100.00;102318.23;109336;1253;67875;-83
2023/02/07 04:50:13;;;;;;;11.10;5.60;;;;;;;-2.37;100.00;102317.29;109280;1252;71711;-83
2023/02/07 04:53:01;;;;;;;11.40;5.00;;;;;;;-2.40;100.00;102319.88;109312;1253;59002;-84
2023/02/07 04:55:51;;;;;;;15.60;6.50;;;;;;;-2.44;100.00;102320.85;109256;1253;59630;-83
2023/02/07 04:58:43;;;;;;;12.60;6.60;;;;;;;-2.41;100.00;102321.73;109285;1253;74546;-84
2023/02/07 05:01:32;;;;;;;11.60;5.10;;;;;;;-2.44;100.00;102325.30;109338;1253;70234;-83
2023/02/07 05:04:21;;;;;;;17.60;7.50;;;;;;;-2.49;100.00;102328.59;109289;1253;72986;-83
2023/02/07 05:07:09;;;;;;;30.10;12.40;;;;;;;-2.51;100.00;102327.26;109349;1251;59964;-83
2023/02/07 05:09:59;;;;;;;29.40;13.10;;;;;;;-2.68;100.00;102327.20;109311;1252;60453;-83
2023/02/07 05:12:48;;;;;;;18.80;8.90;;;;;;;-2.79;100.00;102328.06;109401;1252;74687;-83
2023/02/07 05:15:37;;;;;;;16.70;7.60;;;;;;;-2.88;100.00;102332.90;109388;1252;66744;-83
2023/02/07 05:18:26;;;;;;;17.60;9.20;;;;;;;-3.04;100.00;102331.13;109365;1253;73575;-83
2023/02/07 05:21:15;;;;;;;22.90;10.40;;;;;;;-3.12;100.00;102330.81;109282;1253;59037;-83
2023/02/07 05:24:04;;;;;;;22.20;9.60;;;;;;;-3.24;100.00;102333.69;109295;1254;59498;-83
2023/02/07 05:26:52;;;;;;;14.50;7.40;;;;;;;-3.31;100.00;102333.14;109271;1254;73324;-83
2023/02/07 05:29:45;;;;;;;;;;;;;;;-3.41;100.00;102335.48;109322;1252;67503;-83
2023/02/07 05:35:43;;;;;;;14.70;6.60;;;;;;;-3.61;100.00;102337.80;109358;1251;59009;-83
2023/02/07 05:38:31;;;;;;;15.60;7.10;;;;;;;-3.66;100.00;102344.34;109321;1251;61342;-84
2023/02/07 05:41:20;;;;;;;12.90;6.40;;;;;;;-3.71;100.00;102349.98;109341;1252;74247;-84
2023/02/07 05:44:09;;;;;;;32.80;15.20;;;;;;;-3.75;100.00;102352.13;109406;1251;68751;-84
2023/02/07 05:46:58;;;;;;;18.50;8.10;;;;;;;-3.73;100.00;102356.54;109384;1251;72942;-83
2023/02/07 05:49:46;;;;;;;21.80;8.30;;;;;;;-3.81;100.00;102358.77;109359;1251;60265;-83
2023/02/07 05:52:35;;;;;;;49.20;21.90;;;;;;;-3.88;100.00;102358.14;109324;1252;59815;-84
2023/02/07 05:55:24;;;;;;;25.80;13.40;;;;;;;-3.96;100.00;102363.04;109270;1251;76005;-84
2023/02/07 05:58:13;;;;;;;32.20;14.20;;;;;;;-4.01;100.00;102369.43;109278;1253;66758;-84
2023/02/07 06:01:01;;;;;;;32.40;13.70;;;;;;;-4.06;100.00;102368.80;109290;1251;73059;-83
2023/02/07 06:03:50;;;;;;;38.20;17.00;;;;;;;-4.09;100.00;102370.99;109334;1251;62506;-83
2023/02/07 06:06:40;;;;;;;30.60;14.20;;;;;;;-4.10;100.00;102368.80;109377;1251;59385;-84
2023/02/07 06:09:32;;;;;;;30.00;11.70;;;;;;;-4.09;100.00;102371.15;109398;1251;74894;-84
2023/02/07 06:12:21;;;;;;;23.50;11.60;;;;;;;-4.09;100.00;102373.13;109225;1252;68720;-84
2023/02/07 06:15:10;;;;;;;29.00;14.60;;;;;;;-4.06;100.00;102375.16;109257;1252;73113;-83
2023/02/07 06:17:59;;;;;;;33.80;17.70;;;;;;;-4.00;100.00;102376.10;109302;1252;60363;-83
2023/02/07 06:20:49;;;;;;;31.30;14.20;;;;;;;-3.98;100.00;102374.85;109239;1253;58991;-83
2023/02/07 06:23:38;;;;;;;31.20;13.20;;;;;;;-3.97;100.00;102372.91;109342;1251;73546;-83
2023/02/07 06:26:27;;;;;;;25.60;12.80;;;;;;;-3.93;100.00;102375.79;109327;1253;69242;-84
2023/02/07 06:29:15;;;;;;;31.20;14.30;;;;;;;-3.91;100.00;102383.42;109383;1251;72655;-84
2023/02/07 06:32:05;;;;;;;31.50;13.10;;;;;;;-3.84;100.00;102383.04;109374;1251;63003;-84
2023/02/07 06:34:53;;;;;;;27.10;12.30;;;;;;;-3.81;100.00;102383.09;109322;1252;59679;-84
2023/02/07 06:37:42;;;;;;;35.20;13.40;;;;;;;-3.69;100.00;102385.40;109431;1252;74967;-84
2023/02/07 06:40:31;;;;;;;25.00;10.00;;;;;;;-3.57;100.00;102386.98;109340;1253;67022;-85
2023/02/07 06:43:22;;;;;;;18.30;8.90;;;;;;;-3.44;100.00;102386.87;109305;1251;72820;-84
2023/02/07 06:46:11;;;;;;;16.00;7.50;;;;;;;-3.27;100.00;102389.96;109355;1251;60532;-86
2023/02/07 06:49:01;;;;;;;17.90;8.30;;;;;;;-3.15;100.00;102392.23;109247;1253;59498;-85
2023/02/07 06:51:51;;;;;;;16.10;7.30;;;;;;;-3.00;100.00;102398.19;109270;1253;74147;-83
2023/02/07 06:54:43;;;;;;;21.60;11.10;;;;;;;-2.84;100.00;102400.83;109347;1251;67621;-86
2023/02/07 06:57:36;;;;;;;16.80;7.10;;;;;;;-2.70;100.00;102399.66;109370;1252;73371;-85
2023/02/07 07:00:24;;;;;;;19.10;7.60;;;;;;;-2.57;100.00;102399.91;109298;1253;59880;-86
2023/02/07 07:03:14;;;;;;;20.40;8.30;;;;;;;-2.46;100.00;102404.70;109409;1251;60719;-85
2023/02/07 07:06:02;;;;;;;18.30;7.20;;;;;;;-2.41;100.00;102408.66;109282;1253;75085;-85
2023/02/07 07:08:51;;;;;;;17.40;7.90;;;;;;;-2.36;100.00;102410.16;109377;1251;66571;-86
2023/02/07 07:11:41;;;;;;;14.60;7.90;;;;;;;-2.24;100.00;102411.58;109302;1253;71613;-86
2023/02/07 07:14:31;;;;;;;21.00;8.10;;;;;;;-2.16;100.00;102412.18;109295;1253;58965;-86
2023/02/07 07:17:20;;;;;;;8.80;5.40;;;;;;;-2.04;100.00;102414.66;109297;1253;60353;-85
2023/02/07 07:20:09;;;;;;;13.50;6.30;;;;;;;-1.94;100.00;102418.10;109266;1251;76400;-86
2023/02/07 07:22:58;;;;;;;12.10;5.50;;;;;;;-1.87;100.00;102420.27;109310;1252;69017;-86
2023/02/07 07:25:47;;;;;;;13.50;7.10;;;;;;;-1.81;100.00;102425.79;109294;1253;71703;-85
2023/02/07 07:28:35;;;;;;;9.60;5.40;;;;;;;-1.71;100.00;102429.66;109236;1252;59647;-85
2023/02/07 07:31:25;;;;;;;10.50;5.10;;;;;;;-1.62;100.00;102436.10;109281;1253;59243;-86
2023/02/07 07:34:13;;;;;;;11.70;5.80;;;;;;;-1.56;100.00;102437.50;109185;1253;73862;-87
2023/02/07 07:37:03;;;;;;;9.40;5.20;;;;;;;-1.51;100.00;102438.59;109340;1252;68696;-86
2023/02/07 07:39:51;;;;;;;12.40;5.40;;;;;;;-1.45;100.00;102436.72;109364;1251;71689;-85
2023/02/07 07:42:40;;;;;;;12.80;5.60;;;;;;;-1.45;100.00;102433.87;109355;1251;59335;-85
2023/02/07 07:45:45;;;;;;;12.90;6.20;;;;;;;-1.43;100.00;102436.37;109305;1252;59346;-83
2023/02/07 07:48:33;;;;;;;20.20;10.10;;;;;;;-1.38;100.00;102440.12;109332;1252;73361;-85
2023/02/07 07:51:23;;;;;;;16.00;8.80;;;;;;;-1.34;100.00;102438.71;109337;1252;69307;-86
2023/02/07 07:54:13;;;;;;;17.30;8.40;;;;;;;-1.28;100.00;102433.78;109311;1251;72034;-86
2023/02/07 07:57:01;;;;;;;18.30;10.40;;;;;;;-1.23;100.00;102431.38;109252;1253;62724;-85
2023/02/07 07:59:50;;;;;;;12.60;7.90;;;;;;;-1.21;100.00;102433.98;109375;1252;60040;-86
2023/02/07 08:02:40;;;;;;;11.70;6.10;;;;;;;-1.16;100.00;102435.51;109213;1253;75867;-86
2023/02/07 08:05:29;;;;;;;12.40;4.70;;;;;;;-1.14;100.00;102428.52;109325;1253;68711;-83
2023/02/07 08:08:21;;;;;;;14.10;8.00;;;;;;;-1.03;100.00;102429.17;109283;1251;72377;-83
2023/02/07 08:11:10;;;;;;;8.80;4.80;;;;;;;-0.99;100.00;102434.98;109379;1251;59356;-83
2023/02/07 08:13:58;;;;;;;12.70;6.50;;;;;;;-1.00;100.00;102433.00;109355;1251;60191;-85
2023/02/07 08:16:47;;;;;;;19.80;7.60;;;;;;;-0.97;100.00;102433.80;109306;1252;74022;-85
2023/02/07 08:19:37;;;;;;;12.90;5.80;;;;;;;-0.92;100.00;102436.46;109259;1253;69109;-83
2023/02/07 08:22:26;;;;;;;14.70;7.00;;;;;;;-0.83;100.00;102442.71;109277;1251;71674;-85
2023/02/07 08:25:14;;;;;;;11.00;5.20;;;;;;;-0.79;100.00;102444.17;109304;1253;60448;-83
2023/02/07 08:28:03;;;;;;;13.70;6.00;;;;;;;-0.72;100.00;102440.23;109327;1251;59282;-84
2023/02/07 08:30:52;;;;;;;11.30;6.20;;;;;;;-0.65;100.00;102438.61;109332;1252;74727;-84
2023/02/07 08:33:41;;;;;;;15.60;7.10;;;;;;;-0.59;100.00;102440.50;109398;1251;69359;-85
2023/02/07 08:36:31;;;;;;;15.00;7.00;;;;;;;-0.56;100.00;102439.75;109295;1253;72942;-85
2023/02/07 08:39:20;;;;;;;13.30;5.50;;;;;;;-0.45;100.00;102443.82;109220;1253;61139;-84
2023/02/07 08:42:09;;;;;;;12.40;6.40;;;;;;;-0.41;100.00;102446.48;109333;1252;60227;-84
2023/02/07 08:44:57;;;;;;;15.00;6.70;;;;;;;-0.38;100.00;102445.11;109292;1253;75038;-86
2023/02/07 08:47:46;;;;;;;13.80;7.30;;;;;;;-0.35;100.00;102439.63;109322;1253;68971;-84
2023/02/07 08:50:35;;;;;;;16.80;8.30;;;;;;;-0.31;100.00;102434.19;109302;1253;70744;-85
2023/02/07 08:53:23;;;;;;;13.70;6.00;;;;;;;-0.23;100.00;102435.09;109247;1253;59381;-85
2023/02/07 08:56:12;;;;;;;14.20;6.30;;;;;;;-0.28;100.00;102437.42;109296;1252;60819;-84
2023/02/07 08:59:01;;;;;;;17.90;8.70;;;;;;;-0.32;100.00;102444.74;109269;1253;74827;-84
2023/02/07 09:01:51;;;;;;;17.60;7.60;;;;;;;-0.30;100.00;102446.23;109315;1253;67627;-86
2023/02/07 09:04:41;;;;;;;15.40;7.50;;;;;;;-0.18;100.00;102439.77;109268;1253;71478;-85
2023/02/07 09:07:30;;;;;;;15.90;7.00;;;;;;;-0.08;100.00;102440.41;109336;1252;61463;-83
2023/02/07 09:10:19;;;;;;;15.80;7.40;;;;;;;-0.03;100.00;102445.94;109386;1251;59220;-84
2023/02/07 09:13:08;;;;;;;12.50;6.50;;;;;;;-0.06;100.00;102443.95;109378;1253;75593;-85
2023/02/07 09:15:57;;;;;;;14.50;6.40;;;;;;;-0.10;100.00;102441.45;109309;1250;69461;-84
2023/02/07 09:18:47;;;;;;;17.70;8.00;;;;;;;-0.08;100.00;102445.92;109392;1251;70472;-85
2023/02/07 09:21:37;;;;;;;17.80;7.70;;;;;;;-0.07;100.00;102445.66;109191;1253;59797;-85
2023/02/07 09:24:27;;;;;;;15.00;7.70;;;;;;;-0.12;100.00;102445.45;109416;1251;58943;-85
2023/02/07 09:27:15;;;;;;;17.10;7.90;;;;;;;-0.20;100.00;102449.31;109296;1252;75170;-84
2023/02/07 09:30:05;;;;;;;20.50;9.50;;;;;;;-0.20;100.00;102448.28;109307;1250;69337;-84
2023/02/07 09:32:56;;;;;;;13.40;7.00;;;;;;;-0.08;100.00;102448.10;109283;1252;71983;-84
2023/02/07 09:35:46;;;;;;;17.40;7.10;;;;;;;0.04;100.00;102443.33;109303;1253;59527;-85
2023/02/07 09:38:35;;;;;;;14.50;6.90;;;;;;;0.11;100.00;102446.94;109277;1252;58967;-85
2023/02/07 09:41:45;;;;;;;13.20;7.40;;;;;;;0.16;100.00;102442.20;109326;1252;75489;-84
2023/02/07 09:44:51;;;;;;;14.60;6.50;;;;;;;0.02;100.00;102438.84;109385;1251;69937;-85
2023/02/07 09:47:41;;;;;;;14.60;5.60;;;;;;;-0.02;100.00;102437.98;109211;1253;73222;-85
2023/02/07 09:50:40;;;;;;;14.50;6.60;;;;;;;0.05;100.00;102434.02;109158;1253;59041;-85
2023/02/07 09:53:42;;;;;;;11.40;5.60;;;;;;;0.23;100.00;102436.95;109151;1253;58996;-85
2023/02/07 09:56:33;;;;;;;11.50;5.80;;;;;;;0.28;100.00;102433.58;109160;1253;76471;-86
2023/02/07 09:59:37;;;;;;;12.40;6.40;;;;;;;0.29;100.00;102433.40;109307;1252;68109;-83
2023/02/07 10:02:33;;;;;;;12.70;5.30;;;;;;;0.22;100.00;102434.34;109028;1253;72715;-85
2023/02/07 10:05:26;;;;;;;14.30;6.40;;;;;;;0.12;100.00;102439.55;109254;1251;59523;-84
2023/02/07 10:08:16;;;;;;;13.40;6.10;;;;;;;0.13;100.00;102437.27;109235;1251;59593;-84
2023/02/07 10:11:14;;;;;;;15.10;6.50;;;;;;;0.19;100.00;102424.65;109216;1253;73437;-84
2023/02/07 10:14:26;;;;;;;15.90;6.40;;;;;;;0.30;100.00;102426.23;109391;1251;68052;-85
2023/02/07 10:17:26;;;;;;;12.50;5.60;;;;;;;0.40;100.00;102426.38;109380;1251;71675;-85
2023/02/07 10:20:29;;;;;;;13.40;5.50;;;;;;;0.50;100.00;102418.70;109169;1253;61464;-85
2023/02/07 10:23:51;;;;;;;15.50;6.50;;;;;;;0.58;100.00;102421.17;109325;1252;59705;-85
2023/02/07 10:26:53;;;;;;;13.00;5.70;;;;;;;0.67;100.00;102422.20;109144;1252;74064;-86
2023/02/07 10:30:08;;;;;;;11.40;4.90;;;;;;;0.64;100.00;102424.12;109352;1253;68642;-85
2023/02/07 10:33:04;;;;;;;12.30;5.30;;;;;;;0.57;100.00;102425.67;109132;1253;73481;-85
2023/02/07 10:35:52;;;;;;;10.00;4.90;;;;;;;0.44;100.00;102425.55;109128;1253;59273;-86
2023/02/07 10:38:47;;;;;;;10.50;5.20;;;;;;;0.31;100.00;102421.55;109219;1256;60306;-86
2023/02/07 10:41:44;;;;;;;9.00;4.00;;;;;;;0.30;100.00;102428.91;109393;1251;73226;-85
2023/02/07 10:44:33;;;;;;;12.60;5.50;;;;;;;0.22;100.00;102434.02;109291;1253;66587;-85
2023/02/07 10:47:24;;;;;;;10.40;4.20;;;;;;;0.16;100.00;102429.83;109079;1253;72653;-85
2023/02/07 10:50:21;;;;;;;9.50;5.00;;;;;;;0.13;100.00;102431.77;109368;1251;59304;-84
2023/02/07 10:53:46;;;;;;;9.00;5.20;;;;;;;0.12;100.00;102432.34;109254;1253;61163;-86
2023/02/07 10:57:04;;;;;;;10.50;4.90;;;;;;;0.08;100.00;102441.35;109284;1253;76204;-86
2023/02/07 11:00:21;;;;;;;12.00;6.00;;;;;;;0.01;100.00;102443.58;109200;1253;69677;-85
2023/02/07 11:03:13;;;;;;;12.50;5.70;;;;;;;-0.03;100.00;102441.67;109222;1251;72897;-84
2023/02/07 11:06:06;;;;;;;12.40;6.20;;;;;;;-0.05;100.00;102440.77;109331;1253;59560;-85
2023/02/07 11:09:19;;;;;;;8.10;3.90;;;;;;;-0.10;100.00;102445.39;109362;1253;59121;-84
2023/02/07 11:12:21;;;;;;;9.80;4.40;;;;;;;-0.09;100.00;102445.81;109333;1253;73470;-84
2023/02/07 11:15:18;;;;;;;10.20;4.50;;;;;;;-0.03;100.00;102449.47;109271;1253;67741;-84
2023/02/07 11:18:07;;;;;;;8.40;4.30;;;;;;;-0.01;100.00;102449.67;109368;1252;74683;-85
2023/02/07 11:20:55;;;;;;;11.70;4.90;;;;;;;0.03;100.00;102450.07;109306;1252;60676;-85
2023/02/07 11:23:44;;;;;;;11.40;5.10;;;;;;;0.08;100.00;102445.55;109385;1252;60044;-84
2023/02/07 11:26:34;;;;;;;9.60;4.20;;;;;;;0.13;100.00;102448.21;109131;1253;74879;-85
2023/02/07 11:29:23;;;;;;;11.60;4.80;;;;;;;0.14;100.00;102444.41;109172;1253;68732;-85
2023/02/07 11:32:13;;;;;;;10.00;3.90;;;;;;;0.12;100.00;102444.77;109149;1251;73989;-85
2023/02/07 11:35:08;;;;;;;12.70;5.20;;;;;;;-0.03;100.00;102445.01;109303;1253;59718;-84
2023/02/07 11:37:58;;;;;;;12.90;5.80;;;;;;;-0.07;100.00;102446.36;109151;1258;60566;-84
2023/02/07 11:40:47;;;;;;;14.10;7.30;;;;;;;-0.11;100.00;102446.91;109227;1253;72847;-84
2023/02/07 11:43:36;;;;;;;9.30;4.50;;;;;;;-0.14;100.00;102453.17;109354;1252;69784;-84
2023/02/07 11:46:36;;;;;;;9.70;4.60;;;;;;;-0.24;100.00;102455.53;109394;1251;70975;-85
2023/02/07 11:49:31;;;;;;;12.00;5.50;;;;;;;-0.23;100.00;102458.56;109342;1252;59905;-85
2023/02/07 11:52:20;;;;;;;10.80;5.10;;;;;;;-0.24;100.00;102464.08;109329;1252;59198;-84
2023/02/07 11:55:13;;;;;;;11.10;4.50;;;;;;;-0.25;100.00;102466.48;109197;1253;73764;-85
2023/02/07 11:58:22;;;;;;;9.80;4.40;;;;;;;-0.25;100.00;102473.33;109289;1250;69801;-83
2023/02/07 12:01:14;;;;;;;9.90;4.50;;;;;;;-0.32;100.00;102472.48;109317;1251;73824;-84
2023/02/07 12:04:17;;;;;;;10.60;5.00;;;;;;;-0.28;100.00;102469.55;109218;1252;59376;-85
2023/02/07 12:07:14;;;;;;;11.10;5.10;;;;;;;-0.27;100.00;102469.63;109186;1253;60226;-85
2023/02/07 12:10:04;;;;;;;15.90;6.10;;;;;;;-0.25;100.00;102468.48;109271;1253;73790;-84
2023/02/07 12:13:11;;;;;;;12.10;5.30;;;;;;;-0.21;100.00;102466.95;109213;1253;69051;-84
2023/02/07 12:16:23;;;;;;;10.10;4.90;;;;;;;-0.30;100.00;102477.22;109354;1253;71398;-84
2023/02/07 12:19:17;;;;;;;12.90;6.00;;;;;;;-0.41;100.00;102477.63;109112;1253;79466;-84
2023/02/07 12:22:13;;;;;;;14.00;6.50;;;;;;;-0.43;100.00;102479.31;109208;1251;61475;-84
2023/02/07 12:25:06;;;;;;;10.60;5.30;;;;;;;-0.49;100.00;102484.52;109283;1251;74897;-85
2023/02/07 12:28:00;;;;;;;12.40;5.10;;;;;;;-0.56;100.00;102484.40;109189;1255;69030;-86
2023/02/07 12:30:49;;;;;;;12.20;5.40;;;;;;;-0.58;100.00;102482.43;109289;1251;70386;-84
2023/02/07 12:33:46;;;;;;;10.20;4.90;;;;;;;-0.58;100.00;102486.70;109379;1251;59041;-83
2023/02/07 12:36:43;;;;;;;11.60;4.10;;;;;;;-0.56;100.00;102485.44;109188;1251;59465;-85
2023/02/07 12:39:45;;;;;;;14.40;5.20;;;;;;;-0.44;100.00;102489.45;109326;1252;73503;-84
2023/02/07 12:42:44;;;;;;;14.60;5.70;;;;;;;-0.32;100.00;102496.85;109174;1253;70755;-85
2023/02/07 12:45:51;;;;;;;11.60;5.30;;;;;;;-0.29;100.00;102504.55;109211;1253;74439;-84
2023/02/07 12:49:14;;;;;;;16.70;6.50;;;;;;;-0.36;100.00;102509.20;109220;1251;60772;-85
2023/02/07 12:52:26;;;;;;;17.00;6.20;;;;;;;-0.48;100.00;102513.42;109316;1251;60964;-85
2023/02/07 12:55:43;;;;;;;11.30;4.50;;;;;;;-0.52;100.00;102515.95;109304;1252;75304;-87
2023/02/07 12:58:48;;;;;;;9.70;4.50;;;;;;;-0.53;100.00;102513.77;109340;1253;68704;-86
2023/02/07 13:02:03;;;;;;;9.80;4.00;;;;;;;-0.46;100.00;102518.80;109314;1253;72152;-86
2023/02/07 13:05:15;;;;;;;10.90;4.80;;;;;;;-0.46;100.00;102516.60;109226;1253;60893;-84